Time;durP1;ratioP1;P1;durP2;ratioP2;P2;SDS_P1;SDS_P2;PMS_P1;PMS_P2;Temp;Humidity;BMP_temperature;BMP_pressure;BME280_temperature;BME280_humidity;BME280_pressure;Samples;Min_cycle;Max_cycle;Signal;HPM_P1;HPM_P2
2021/11/10 00:00:47;;;;;;;;;;;;;;;6.73;100.00;99936.34;5016888;28;19928;-69
2021/11/10 00:03:16;;;;;;;;;;;;;;;6.47;100.00;99936.34;5017315;28;19929;-69
2021/11/10 00:05:44;;;;;;;;;;;;;;;6.63;100.00;99938.03;5012362;28;19928;-69
2021/11/10 00:32:33;;;;;;;;;;;;;;;6.60;100.00;99886.84;5011459;28;20374;-69
2021/11/10 05:46:16;;;;;;;;;;;;;;;5.20;100.00;99798.97;5018064;28;19935;-69
2021/11/10 05:48:43;;;;;;;;;;;;;;;5.70;100.00;99808.41;5003734;28;20350;-69
2021/11/10 05:51:09;;;;;;;;;;;;;;;5.66;100.00;99806.75;5020232;28;19917;-69
2021/11/10 05:53:34;;;;;;;;;;;;;;;5.49;100.00;99818.63;5020441;28;19923;-70
2021/11/10 05:56:00;;;;;;;;;;;;;;;5.62;100.00;99822.91;5021623;28;19928;-70
2021/11/10 05:58:28;;;;;;;;;;;;;;;5.84;100.00;99831.47;5018970;28;19928;-70
2021/11/10 06:00:56;;;;;;;;;;;;;;;5.59;100.00;99828.03;5021605;28;19917;-70
2021/11/10 06:03:21;;;;;;;;;;;;;;;5.57;100.00;99816.94;5003007;28;19921;-70
2021/11/10 06:05:50;;;;;;;;;;;;;;;4.94;100.00;99809.13;5001347;28;19983;-70
2021/11/10 06:08:22;;;;;;;;;;;;;;;4.75;100.00;99820.94;5020449;28;19921;-70
2021/11/10 06:10:52;;;;;;;;;;;;;;;5.62;100.00;99812.69;5021054;28;19979;-70
2021/11/10 06:13:18;;;;;;;;;;;;;;;5.50;100.00;99816.09;5019556;28;19916;-70
2021/11/10 06:15:46;;;;;;;;;;;;;;;4.95;100.00;99824.44;5020620;28;19935;-70
2021/11/10 06:18:22;;;;;;;;;;;;;;;4.44;100.00;99833.53;5020789;28;19921;-70
2021/11/10 06:20:51;;;;;;;;;;;;;;;5.39;100.00;99835.66;5002246;28;19921;-70
2021/11/10 06:23:16;;;;;;;;;;;;;;;5.30;100.00;99839.03;5021956;28;19936;-70
2021/11/10 06:25:41;;;;;;;;;;;;;;;5.41;100.00;99827.13;5023123;28;20299;-69
2021/11/10 06:28:07;;;;;;;;;;;;;;;5.39;100.00;99827.97;5008792;28;20042;-69
2021/11/10 06:30:32;;;;;;;;;;;;;;;5.08;100.00;99837.25;5022266;28;19917;-69
2021/11/10 06:33:00;;;;;;;;;;;;;;;4.61;100.00;99844.69;5020430;28;19913;-70
2021/11/10 06:35:25;;;;;;;;;;;;;;;5.06;100.00;99841.50;5020715;28;19951;-70
2021/11/10 06:37:52;;;;;;;;;;;;;;;4.43;100.00;99844.59;5003896;28;19928;-69
2021/11/10 06:40:18;;;;;;;;;;;;;;;4.30;100.00;99841.09;5020964;28;19928;-70
2021/11/10 06:42:43;;;;;;;;;;;;;;;4.91;100.00;99840.59;5020098;28;20397;-69
2021/11/10 06:45:09;;;;;;;;;;;;;;;4.85;100.00;99855.00;5020640;28;19929;-69
2021/11/10 06:47:34;;;;;;;;;;;;;;;4.65;100.00;99855.75;5002878;28;19916;-69
2021/11/10 06:50:00;;;;;;;;;;;;;;;4.66;100.00;99848.97;5022159;28;19917;-70
2021/11/10 06:52:27;;;;;;;;;;;;;;;5.01;100.00;99846.56;5021216;28;19944;-70
2021/11/10 06:54:53;;;;;;;;;;;;;;;5.30;100.00;99838.19;4995986;28;20288;-70
2021/11/10 06:57:20;;;;;;;;;;;;;;;5.37;100.00;99840.75;5020771;28;19913;-70
2021/11/10 06:59:45;;;;;;;;;;;;;;;5.41;100.00;99847.56;5021155;28;19936;-70
2021/11/10 07:02:12;;;;;;;;;;;;;;;5.34;100.00;99833.09;5001896;28;19921;-70
2021/11/10 07:04:39;;;;;;;;;;;;;;;5.19;100.00;99830.47;5002498;28;19932;-70
2021/11/10 07:07:08;;;;;;;;;;;;;;;5.13;100.00;99830.44;5019333;28;20197;-70
2021/11/10 07:09:43;;;;;;;;;;;;;;;5.33;100.00;99831.34;5019616;28;19921;-70
2021/11/10 07:12:14;;;;;;;;;;;;;;;4.94;100.00;99829.53;5015252;28;19925;-69
2021/11/10 07:14:40;;;;;;;;;;;;;;;5.15;100.00;99842.38;5020353;28;19963;-69
2021/11/10 07:17:06;;;;;;;;;;;;;;;5.16;100.00;99843.25;5000852;28;19925;-70
2021/11/10 07:19:34;;;;;;;;;;;;;;;5.15;100.00;99844.06;5019686;28;19967;-70
2021/11/10 07:22:00;;;;;;;;;;;;;;;5.20;100.00;99847.50;5019090;28;19960;-69
2021/11/10 07:24:26;;;;;;;;;;;;;;;5.18;100.00;99852.63;5019226;28;20482;-69
2021/11/10 07:26:52;;;;;;;;;;;;;;;5.36;100.00;99851.81;4999503;28;19929;-69
2021/11/10 07:29:21;;;;;;;;;;;;;;;5.31;100.00;99865.41;5013740;28;19917;-69
2021/11/10 07:31:47;;;;;;;;;;;;;;;5.14;100.00;99865.38;5017343;28;19961;-70
2021/11/10 07:34:13;;;;;;;;;;;;;;;5.18;100.00;99869.63;5001490;28;19960;-69
2021/11/10 07:36:39;;;;;;;;;;;;;;;5.06;100.00;99870.41;5018926;28;19925;-70
2021/11/10 07:39:05;;;;;;;;;;;;;;;5.03;100.00;99886.56;5018404;28;19927;-69
2021/11/10 07:41:32;;;;;;;;;;;;;;;4.79;100.00;99881.38;5000471;28;20388;-69
2021/11/10 07:43:58;;;;;;;;;;;;;;;4.77;100.00;99880.50;5020107;28;19928;-69
2021/11/10 07:46:26;;;;;;;;;;;;;;;5.06;100.00;99884.88;5017079;28;19921;-69
2021/11/10 07:48:52;;;;;;;;;;;;;;;5.16;100.00;99891.75;5021562;28;19917;-69
2021/11/10 07:51:18;;;;;;;;;;;;;;;5.16;100.00;99894.31;4999890;28;19921;-70
2021/11/10 07:53:44;;;;;;;;;;;;;;;5.51;100.00;99886.75;5000474;28;20382;-69
2021/11/10 07:56:13;;;;;;;;;;;;;;;5.39;100.00;99887.56;5015459;28;19928;-70
2021/11/10 07:58:40;;;;;;;;;;;;;;;5.53;100.00;99892.72;5014686;28;20179;-70
2021/11/10 08:01:06;;;;;;;;;;;;;;;5.45;100.00;99892.72;4987466;28;19925;-70
2021/11/10 08:03:34;;;;;;;;;;;;;;;5.84;100.00;99888.53;5011045;28;19933;-69
2021/11/10 08:06:01;;;;;;;;;;;;;;;6.06;100.00;99880.91;5012268;28;19943;-70
2021/11/10 08:08:26;;;;;;;;;;;;;;;5.93;100.00;99876.59;4991582;28;19928;-70
2021/11/10 08:10:53;;;;;;;;;;;;;;;6.07;100.00;99874.97;4999684;28;19924;-70
2021/11/10 08:13:18;;;;;;;;;;;;;;;5.99;100.00;99871.53;5014336;28;19921;-70
2021/11/10 08:15:45;;;;;;;;;;;;;;;6.11;100.00;99870.69;4999972;28;19921;-69
2021/11/10 08:18:25;;;;;;;;;;;;;;;6.41;100.00;99875.81;5014675;28;20354;-69
2021/11/10 08:20:51;;;;;;;;;;;;;;;5.94;100.00;99878.31;5010038;28;19983;-69
2021/11/10 08:23:23;;;;;;;;;;;;;;;6.34;100.00;99886.03;4995740;28;19929;-69
2021/11/10 08:25:49;;;;;;;;;;;;;;;6.69;100.00;99886.00;5014988;28;19984;-70
2021/11/10 08:28:16;;;;;;;;;;;;;;;6.41;100.00;99890.28;5014216;28;19921;-69
2021/11/10 08:30:41;;;;;;;;;;;;;;;6.45;100.00;99886.88;4997483;28;19921;-70
2021/11/10 08:33:09;;;;;;;;;;;;;;;6.21;100.00;99883.47;4998463;28;20446;-70
2021/11/10 08:35:35;;;;;;;;;;;;;;;6.52;100.00;99887.72;5011034;28;19921;-70
2021/11/10 08:38:00;;;;;;;;;;;;;;;6.28;100.00;99889.44;5013799;28;19928;-69
2021/11/10 08:40:27;;;;;;;;;;;;;;;6.57;100.00;99896.22;5016819;28;20380;-70
2021/11/10 08:42:52;;;;;;;;;;;;;;;6.45;100.00;99897.09;5018238;28;19928;-70
2021/11/10 08:45:19;;;;;;;;;;;;;;;6.54;100.00;99886.84;5016099;28;19921;-69
2021/11/10 08:47:46;;;;;;;;;;;;;;;6.22;100.00;99892.00;5001570;28;20000;-69
2021/11/10 08:50:12;;;;;;;;;;;;;;;6.65;100.00;99895.38;5017405;28;19929;-69
2021/11/10 08:52:38;;;;;;;;;;;;;;;6.37;100.00;99893.72;5017032;28;20380;-69
2021/11/10 09:04:46;;;;;;;;;;;;;;;6.91;100.00;99895.34;5017427;28;20448;-69
2021/11/10 09:16:46;;;;;;;;;;;;;;;7.90;100.00;99862.38;5021188;28;20304;-69
2021/11/10 09:22:53;;;;;;;;;;;;;;;8.43;100.00;99872.22;4914655;29;20047;-70
2021/11/10 09:25:40;;;;;;;;;;;;;;;8.74;100.00;99871.06;4888970;29;19978;-70
2021/11/10 09:34:34;;;;;;;;;;;;;;;8.98;100.00;99849.38;4918341;29;20556;-70
2021/11/10 09:40:20;;;;;;;;;;;;;;;9.95;100.00;99853.19;4916688;29;19926;-69
2021/11/10 09:51:56;;;;;;;;;;;;;;;10.91;100.00;99842.09;4920640;29;19942;-69
2021/11/10 10:00:31;;;;;;;;;;;;;;;11.23;100.00;99833.69;5004861;28;20013;-69
2021/11/10 10:06:01;;;;;;;;;;;;;;;11.06;100.00;99834.06;5004932;28;19920;-70
2021/11/10 10:08:41;;;;;;;;;;;;;;;10.87;100.00;99840.44;4984883;28;19949;-69
2021/11/10 10:11:13;;;;;;;;;;;;;;;11.25;100.00;99836.25;5001527;28;19956;-69
2021/11/10 10:17:17;;;;;;;;;;;;;;;10.50;100.00;99830.00;5005156;28;19923;-69
2021/11/10 10:23:00;;;;;;;;;;;;;;;10.68;100.00;99822.78;5006716;28;19925;-70
2021/11/10 10:25:55;;;;;;;;;;;;;;;9.44;100.00;99824.78;5008631;28;19931;-69
2021/11/10 10:56:42;;;;;;;;;;;;;;;10.19;100.00;99815.91;4975109;28;19937;-70
2021/11/10 10:59:08;;;;;;;;;;;;;;;9.59;100.00;99816.88;4972353;28;19976;-70
2021/11/10 11:01:59;;;;;;;;;;;;;;;9.73;100.00;99820.97;4977988;28;20001;-70
2021/11/10 11:04:32;;;;;;;;;;;;;;;9.62;100.00;99827.13;4979426;28;19926;-70
2021/11/10 11:06:58;;;;;;;;;;;;;;;10.00;100.00;99825.66;5002896;28;19913;-70
2021/11/10 11:09:29;;;;;;;;;;;;;;;9.93;100.00;99818.06;5020956;28;19917;-70
2021/11/10 11:12:23;;;;;;;;;;;;;;;11.36;100.00;99816.22;5000694;28;19956;-70
2021/11/10 11:15:25;;;;;;;;;;;;;;;11.92;100.00;99818.41;5017213;28;19913;-70
2021/11/10 11:17:53;;;;;;;;;;;;;;;10.37;100.00;99819.91;5015928;28;19939;-70
2021/11/10 11:20:23;;;;;;;;;;;;;;;10.51;100.00;99822.22;5019105;28;20369;-69
2021/11/10 11:22:49;;;;;;;;;;;;;;;10.26;100.00;99814.94;5018574;28;19960;-70
2021/11/10 11:25:16;;;;;;;;;;;;;;;10.06;100.00;99811.88;5019975;28;19983;-70
2021/11/10 11:27:58;;;;;;;;;;;;;;;9.96;100.00;99803.41;5019286;28;20098;-70
2021/11/10 11:30:29;;;;;;;;;;;;;;;9.80;100.00;99815.69;5020410;28;19920;-70
2021/11/10 11:32:58;;;;;;;;;;;;;;;10.12;100.00;99805.75;5001164;28;20427;-70
2021/11/10 11:35:30;;;;;;;;;;;;;;;10.10;100.00;99810.91;5019965;28;19960;-70
2021/11/10 11:37:57;;;;;;;;;;;;;;;9.97;100.00;99817.16;5019303;28;19944;-70
2021/11/10 11:40:23;;;;;;;;;;;;;;;9.81;100.00;99814.00;5019268;28;19918;-70
2021/11/10 11:42:49;;;;;;;;;;;;;;;9.81;100.00;99812.25;5018638;28;20428;-70
2021/11/10 11:45:19;;;;;;;;;;;;;;;9.99;100.00;99813.69;5015476;28;20004;-70
2021/11/10 11:47:48;;;;;;;;;;;;;;;10.03;100.00;99809.31;5018638;28;19924;-70
2021/11/10 11:50:13;;;;;;;;;;;;;;;10.02;100.00;99811.03;5016006;28;20098;-70
2021/11/10 11:52:40;;;;;;;;;;;;;;;10.07;100.00;99812.69;5018328;28;20027;-70
2021/11/10 11:55:21;;;;;;;;;;;;;;;10.13;100.00;99812.59;5000559;28;20340;-70
2021/11/10 11:57:47;;;;;;;;;;;;;;;10.01;100.00;99811.94;5017038;28;19944;-70
2021/11/10 12:00:14;;;;;;;;;;;;;;;10.18;100.00;99803.06;5015956;28;19928;-70
2021/11/10 12:02:48;;;;;;;;;;;;;;;10.10;100.00;99812.63;5018769;28;19949;-70
2021/11/10 12:05:15;;;;;;;;;;;;;;;10.05;100.00;99818.72;5017184;28;20431;-70
2021/11/10 12:07:45;;;;;;;;;;;;;;;10.07;100.00;99810.13;5016437;28;19928;-70
2021/11/10 12:10:18;;;;;;;;;;;;;;;10.29;100.00;99806.34;5012078;28;20391;-70
2021/11/10 12:12:44;;;;;;;;;;;;;;;10.04;100.00;99795.59;5017650;28;20331;-70
2021/11/10 12:15:09;;;;;;;;;;;;;;;10.12;100.00;99782.59;4999076;28;19990;-70
2021/11/10 12:17:35;;;;;;;;;;;;;;;10.17;100.00;99780.75;5017398;28;19925;-70
2021/11/10 12:20:05;;;;;;;;;;;;;;;10.15;100.00;99783.38;4998794;28;20369;-70
2021/11/10 12:22:34;;;;;;;;;;;;;;;10.15;100.00;99780.81;5017201;28;20860;-70
2021/11/10 12:25:02;;;;;;;;;;;;;;;10.35;100.00;99785.63;5012976;28;20000;-70
2021/11/10 12:27:38;;;;;;;;;;;;;;;10.06;100.00;99783.56;5015584;28;19936;-70
2021/11/10 12:30:14;;;;;;;;;;;;;;;10.11;100.00;99779.16;5016050;28;19920;-70
2021/11/10 12:32:39;;;;;;;;;;;;;;;10.14;100.00;99780.84;5017546;28;20527;-70
2021/11/10 12:35:07;;;;;;;;;;;;;;;10.18;100.00;99785.06;5013523;28;19931;-70
2021/11/10 12:37:40;;;;;;;;;;;;;;;10.12;100.00;99790.31;4996914;28;19987;-70
2021/11/10 12:40:20;;;;;;;;;;;;;;;10.11;100.00;99786.03;4997091;28;20400;-70
2021/11/10 12:42:48;;;;;;;;;;;;;;;10.41;100.00;99779.53;4999545;28;20380;-70
2021/11/10 12:45:16;;;;;;;;;;;;;;;10.40;100.00;99776.09;5016574;28;19960;-72
2021/11/10 12:47:43;;;;;;;;;;;;;;;10.17;100.00;99773.03;4996420;28;21080;-68
2021/11/10 12:50:26;;;;;;;;;;;;;;;10.31;100.00;99778.84;5014460;28;21188;-68
2021/11/10 12:52:55;;;;;;;;;;;;;;;10.44;100.00;99770.00;5013161;28;19921;-68
2021/11/10 12:55:22;;;;;;;;;;;;;;;10.43;100.00;99770.03;5016733;28;19986;-68
2021/11/10 12:57:51;;;;;;;;;;;;;;;10.37;100.00;99773.56;4995446;28;19930;-68
2021/11/10 13:00:20;;;;;;;;;;;;;;;10.36;100.00;99778.75;5011955;28;19963;-68
2021/11/10 13:02:55;;;;;;;;;;;;;;;10.20;100.00;99776.44;5015003;28;19944;-68
2021/11/10 13:05:28;;;;;;;;;;;;;;;10.10;100.00;99771.47;5016957;28;19929;-67
2021/11/10 13:08:28;;;;;;;;;;;;;;;10.30;100.00;99768.56;5016160;28;19921;-67
2021/11/10 13:10:53;;;;;;;;;;;;;;;9.92;100.00;99764.91;5014882;28;19960;-67
2021/11/10 13:13:19;;;;;;;;;;;;;;;10.15;100.00;99769.66;5016290;28;20407;-67
2021/11/10 13:15:46;;;;;;;;;;;;;;;10.06;100.00;99760.38;5014555;28;19952;-67
2021/11/10 13:18:21;;;;;;;;;;;;;;;9.91;100.00;99764.06;5016717;28;19967;-67
2021/11/10 13:20:53;;;;;;;;;;;;;;;10.05;100.00;99761.25;4998832;28;19917;-67
2021/11/10 13:38:49;;;;;;;;;;;;;;;11.15;100.00;99727.28;4932747;28;20364;-67
2021/11/10 13:41:37;;;;;;;;;;;;;;;10.81;100.00;99722.03;4936228;28;19925;-67
2021/11/10 13:47:27;;;;;;;;;;;;;;;10.64;100.00;99719.81;4915059;29;19922;-67
2021/11/10 13:49:55;;;;;;;;;;;;;;;10.26;100.00;99729.13;4917166;29;20010;-67
2021/11/10 13:52:29;;;;;;;;;;;;;;;10.37;100.00;99729.78;4913451;29;19922;-67
2021/11/10 13:54:58;;;;;;;;;;;;;;;10.40;100.00;99726.31;4915712;29;19918;-67
2021/11/10 13:57:25;;;;;;;;;;;;;;;10.32;100.00;99729.03;4914320;29;19930;-67
2021/11/10 13:59:51;;;;;;;;;;;;;;;10.67;100.00;99724.91;4920846;29;19982;-68
2021/11/10 14:02:30;;;;;;;;;;;;;;;10.51;100.00;99713.22;4924876;29;19922;-68
2021/11/10 14:04:57;;;;;;;;;;;;;;;10.48;100.00;99715.88;4931802;28;19921;-68
2021/11/10 14:07:32;;;;;;;;;;;;;;;11.13;100.00;99733.38;4967641;28;20927;-68
2021/11/10 14:10:04;;;;;;;;;;;;;;;11.90;100.00;99728.09;4964886;28;20402;-68
2021/11/10 15:57:20;;;;;;;;;;;;;;;10.95;100.00;99770.69;5011287;28;19944;-68
2021/11/10 16:03:43;;;;;;;;;;;;;;;10.79;100.00;99771.03;5018327;28;20004;-67
2021/11/10 16:28:48;;;;;;;;;;;;;;;10.85;100.00;99765.75;5017271;28;19976;-70
2021/11/10 16:32:56;;;;;;;;;;;;;;;10.67;100.00;99768.69;4992875;28;20031;-69
2021/11/10 16:35:17;;;;;;;;;;;;;;;10.22;100.00;99777.25;5013920;28;19921;-70
2021/11/10 16:56:25;;;;;;;;;;;;;;;10.09;100.00;99791.22;5012400;28;20363;-68
2021/11/10 17:31:31;;;;;;;;;;;;;;;8.30;100.00;99836.41;4940895;28;19934;-68
2021/11/10 17:33:58;;;;;;;;;;;;;;;8.53;100.00;99838.75;4936232;28;20067;-68
2021/11/10 17:36:23;;;;;;;;;;;;;;;8.48;100.00;99834.53;4965333;28;20380;-68
2021/11/10 17:38:52;;;;;;;;;;;;;;;8.37;100.00;99843.16;4984552;28;19983;-68
2021/11/10 17:41:18;;;;;;;;;;;;;;;7.73;100.00;99838.53;4997789;28;19921;-68
2021/11/10 17:43:43;;;;;;;;;;;;;;;7.38;100.00;99841.34;4995818;28;19931;-68
2021/11/10 17:46:11;;;;;;;;;;;;;;;7.72;100.00;99847.97;4996047;28;20020;-68
2021/11/10 17:48:45;;;;;;;;;;;;;;;7.85;100.00;99851.31;4997088;28;21007;-68
2021/11/10 17:51:11;;;;;;;;;;;;;;;7.83;100.00;99849.59;4997506;28;20399;-68
2021/11/10 17:53:39;;;;;;;;;;;;;;;7.90;100.00;99841.84;4985799;28;19921;-68
2021/11/10 17:56:12;;;;;;;;;;;;;;;8.03;100.00;99839.19;5005507;28;20031;-69
2021/11/10 17:58:38;;;;;;;;;;;;;;;8.19;100.00;99838.22;5005126;28;19922;-67
2021/11/10 18:01:07;;;;;;;;;;;;;;;7.99;100.00;99837.53;5003444;28;20026;-69
2021/11/10 18:03:32;;;;;;;;;;;;;;;8.06;100.00;99828.91;5009418;28;20499;-69
2021/11/10 18:06:09;;;;;;;;;;;;;;;7.86;100.00;99834.19;4991148;28;19952;-68
2021/11/10 18:08:38;;;;;;;;;;;;;;;8.09;100.00;99834.00;5004500;28;20542;-69
2021/11/10 18:11:04;;;;;;;;;;;;;;;7.77;100.00;99842.78;5005864;28;20008;-62
2021/11/10 18:13:30;;;;;;;;;;;;;;;7.41;100.00;99857.56;4977195;28;19918;-70
2021/11/10 18:15:56;;;;;;;;;;;;;;;7.56;100.00;99866.88;4979611;28;19977;-69
2021/11/10 18:18:22;;;;;;;;;;;;;;;7.77;100.00;99870.16;4995544;28;19971;-69
2021/11/10 18:20:51;;;;;;;;;;;;;;;7.71;100.00;99861.66;4996794;28;20492;-70
2021/11/10 18:23:18;;;;;;;;;;;;;;;7.75;100.00;99865.91;4996332;28;19925;-69
2021/11/10 18:25:46;;;;;;;;;;;;;;;7.70;100.00;99861.66;4995254;28;20304;-70
2021/11/10 18:28:24;;;;;;;;;;;;;;;7.49;100.00;99860.91;4992418;28;19960;-69
2021/11/10 18:30:52;;;;;;;;;;;;;;;7.13;100.00;99857.66;5013669;28;19937;-70
2021/11/10 18:33:18;;;;;;;;;;;;;;;7.17;100.00;99867.94;5022640;28;19921;-69
2021/11/10 18:35:44;;;;;;;;;;;;;;;7.23;100.00;99863.63;5018838;28;19971;-69
2021/11/10 18:38:10;;;;;;;;;;;;;;;7.18;100.00;99849.97;5021039;28;19927;-69
2021/11/10 18:40:39;;;;;;;;;;;;;;;7.13;100.00;99857.66;5001839;28;19944;-69
2021/11/10 18:43:04;;;;;;;;;;;;;;;7.19;100.00;99851.69;5005635;28;20007;-70
2021/11/10 18:45:30;;;;;;;;;;;;;;;7.07;100.00;99842.34;5020384;28;20019;-69
2021/11/10 18:47:57;;;;;;;;;;;;;;;6.64;100.00;99829.69;5021854;28;19983;-70
2021/11/10 18:50:25;;;;;;;;;;;;;;;6.70;100.00;99832.25;5018377;28;19921;-69
2021/11/10 18:52:52;;;;;;;;;;;;;;;6.84;100.00;99845.00;5003432;28;19981;-69
2021/11/10 18:55:18;;;;;;;;;;;;;;;6.88;100.00;99848.38;5017838;28;20008;-69
2021/11/10 18:57:45;;;;;;;;;;;;;;;6.41;100.00;99857.00;5018731;28;19921;-69
2021/11/10 19:00:11;;;;;;;;;;;;;;;6.69;100.00;99851.00;5000721;28;19956;-70
2021/11/10 19:02:40;;;;;;;;;;;;;;;6.44;100.00;99859.59;5020337;28;19975;-69
2021/11/10 19:05:12;;;;;;;;;;;;;;;6.34;100.00;99881.78;5020242;28;19921;-68
2021/11/10 19:10:31;;;;;;;;;;;;;;;6.49;100.00;99893.69;5022079;28;19913;-70
2021/11/10 19:20:54;;;;;;;;;;;;;;;6.64;100.00;99903.91;5022539;28;20304;-68
2021/11/10 19:23:21;;;;;;;;;;;;;;;6.92;100.00;99898.75;5021825;28;19920;-68
2021/11/10 19:25:48;;;;;;;;;;;;;;;6.87;100.00;99879.97;5020850;28;19936;-68
2021/11/10 19:28:14;;;;;;;;;;;;;;;6.86;100.00;99883.38;5021277;28;20012;-68
2021/11/10 19:30:42;;;;;;;;;;;;;;;6.77;100.00;99880.84;5021593;28;20410;-68
2021/11/10 19:33:08;;;;;;;;;;;;;;;6.36;100.00;99884.31;5022320;28;19917;-68
2021/11/10 19:35:34;;;;;;;;;;;;;;;6.15;100.00;99883.47;5022683;28;19928;-68
2021/11/10 19:37:59;;;;;;;;;;;;;;;6.30;100.00;99886.91;5021115;28;19917;-68
2021/11/10 19:40:26;;;;;;;;;;;;;;;6.11;100.00;99881.75;5020097;28;19921;-68
2021/11/10 19:42:51;;;;;;;;;;;;;;;6.76;100.00;99887.69;5020496;28;20487;-68
2021/11/10 19:45:17;;;;;;;;;;;;;;;6.74;100.00;99878.31;5020587;28;19917;-68
2021/11/10 19:47:44;;;;;;;;;;;;;;;6.14;100.00;99881.78;5019411;28;19928;-68
2021/11/10 19:50:11;;;;;;;;;;;;;;;6.70;100.00;99888.56;5001921;28;19929;-68
2021/11/10 19:52:38;;;;;;;;;;;;;;;6.58;100.00;99880.88;5018568;28;19920;-68
2021/11/10 19:55:09;;;;;;;;;;;;;;;6.21;100.00;99883.47;5019610;28;20008;-68
2021/11/10 19:57:41;;;;;;;;;;;;;;;6.69;100.00;99886.00;5019742;28;19932;-68
2021/11/10 20:00:12;;;;;;;;;;;;;;;6.66;100.00;99885.97;5020448;28;20019;-68
2021/11/10 20:02:42;;;;;;;;;;;;;;;6.43;100.00;99884.34;4991184;28;20016;-68
2021/11/10 20:05:18;;;;;;;;;;;;;;;6.73;100.00;99881.69;5018288;28;19916;-68
2021/11/10 20:07:43;;;;;;;;;;;;;;;6.52;100.00;99883.44;5019794;28;20365;-68
2021/11/10 20:10:12;;;;;;;;;;;;;;;6.68;100.00;99885.16;5001366;28;20479;-68
2021/11/10 20:12:39;;;;;;;;;;;;;;;6.45;100.00;99882.63;4991085;28;20368;-68
2021/11/10 20:15:05;;;;;;;;;;;;;;;6.62;100.00;99874.91;5019356;28;19913;-68
2021/11/10 20:17:37;;;;;;;;;;;;;;;6.52;100.00;99870.66;5019615;28;20256;-68
2021/11/10 20:20:19;;;;;;;;;;;;;;;6.00;100.00;99858.75;5000671;28;19932;-69
2021/11/10 20:22:54;;;;;;;;;;;;;;;6.10;100.00;99863.88;5018069;28;19917;-68
2021/11/10 20:25:20;;;;;;;;;;;;;;;6.25;100.00;99854.50;5019536;28;19968;-68
2021/11/10 20:27:48;;;;;;;;;;;;;;;6.36;100.00;99856.19;5018505;28;20331;-68
2021/11/10 20:30:15;;;;;;;;;;;;;;;5.97;100.00;99856.19;5015895;28;19928;-68
2021/11/10 20:32:42;;;;;;;;;;;;;;;6.48;100.00;99871.53;5018735;28;19917;-68
2021/11/10 20:35:12;;;;;;;;;;;;;;;6.09;100.00;99865.59;5021302;28;19966;-68
2021/11/10 20:37:38;;;;;;;;;;;;;;;6.11;100.00;99861.31;5022932;28;19917;-67
2021/11/10 20:40:15;;;;;;;;;;;;;;;6.08;100.00;99863.88;5002025;28;20347;-64
2021/11/10 20:42:44;;;;;;;;;;;;;;;5.80;100.00;99853.59;5025469;28;19921;-64
2021/11/10 20:45:14;;;;;;;;;;;;;;;6.18;100.00;99852.81;5005842;28;20467;-64
2021/11/10 20:47:51;;;;;;;;;;;;;;;6.27;100.00;99847.69;5005494;28;19991;-64
2021/11/10 20:50:21;;;;;;;;;;;;;;;6.48;100.00;99846.78;5008615;28;19920;-64
2021/11/10 20:53:02;;;;;;;;;;;;;;;5.85;100.00;99841.66;5024245;28;19960;-64
2021/11/10 20:55:34;;;;;;;;;;;;;;;5.77;100.00;99852.72;5022659;28;20380;-64
2021/11/10 20:58:00;;;;;;;;;;;;;;;6.30;100.00;99851.09;5024240;28;19971;-64
2021/11/10 21:00:29;;;;;;;;;;;;;;;6.42;100.00;99846.78;5024918;28;20040;-64
2021/11/10 21:02:56;;;;;;;;;;;;;;;6.15;100.00;99847.66;5000594;28;19999;-63
2021/11/10 21:05:23;;;;;;;;;;;;;;;5.82;100.00;99849.34;5022440;28;19921;-64
2021/11/10 21:14:29;;;;;;;;;;;;;;;5.32;100.00;99856.91;4991754;28;19919;-64
2021/11/10 21:17:35;;;;;;;;;;;;;;;4.97;100.00;99855.06;5012999;28;19921;-64
2021/11/10 21:23:26;;;;;;;;;;;;;;;4.57;100.00;99876.13;4978541;28;20479;-64
2021/11/10 21:26:01;;;;;;;;;;;;;;;4.72;100.00;99885.59;4964159;28;20323;-64
2021/11/10 21:28:53;;;;;;;;;;;;;;;4.74;100.00;99893.22;4964895;28;19938;-63
2021/11/10 21:34:24;;;;;;;;;;;;;;;5.13;100.00;99896.84;4979265;28;19925;-64
2021/11/10 21:37:15;;;;;;;;;;;;;;;5.46;100.00;99880.78;4974006;28;20313;-64
2021/11/10 21:46:25;;;;;;;;;;;;;;;5.80;100.00;99881.72;4942819;28;20375;-64
2021/11/10 21:52:37;;;;;;;;;;;;;;;5.70;100.00;99874.88;4962604;28;19952;-64
2021/11/10 21:55:32;;;;;;;;;;;;;;;5.52;100.00;99867.16;4942844;28;20000;-64
2021/11/10 22:01:26;;;;;;;;;;;;;;;5.16;100.00;99861.13;4980126;28;19929;-64
2021/11/10 22:03:57;;;;;;;;;;;;;;;5.43;100.00;99866.31;4971609;28;19932;-64
2021/11/10 22:07:13;;;;;;;;;;;;;;;5.53;100.00;99867.19;4970724;28;19929;-64
2021/11/10 22:10:33;;;;;;;;;;;;;;;5.31;100.00;99853.47;4974127;28;19961;-64
2021/11/10 22:16:12;;;;;;;;;;;;;;;5.13;100.00;99869.63;4988938;28;19924;-64
2021/11/10 22:19:26;;;;;;;;;;;;;;;4.96;100.00;99864.44;5034825;28;20391;-64
2021/11/10 22:22:26;;;;;;;;;;;;;;;5.10;100.00;99866.19;5020136;28;19921;-64
2021/11/10 22:25:27;;;;;;;;;;;;;;;5.54;100.00;99868.03;5020374;28;19932;-64
2021/11/10 22:28:13;;;;;;;;;;;;;;;5.12;100.00;99864.50;4919964;29;21457;-64
2021/11/10 22:31:10;;;;;;;;;;;;;;;5.13;100.00;99861.09;4917731;29;19923;-64
2021/11/10 22:34:06;;;;;;;;;;;;;;;4.88;100.00;99861.00;4878594;29;19958;-64
2021/11/10 22:36:37;;;;;;;;;;;;;;;5.12;100.00;99864.50;4919816;29;19922;-64
2021/11/10 22:39:19;;;;;;;;;;;;;;;5.15;100.00;99855.13;4914439;29;20490;-64
2021/11/10 22:42:31;;;;;;;;;;;;;;;5.19;100.00;99856.84;4920266;29;20650;-64
2021/11/10 22:48:47;;;;;;;;;;;;;;;5.19;100.00;99845.78;4878152;29;19925;-64
2021/11/10 22:51:49;;;;;;;;;;;;;;;5.15;100.00;99849.19;4866138;29;20045;-64
2021/11/10 22:54:38;;;;;;;;;;;;;;;5.16;100.00;99845.78;4880214;29;19942;-64
2021/11/10 22:57:58;;;;;;;;;;;;;;;5.02;100.00;99849.16;4877242;29;19933;-64
2021/11/10 23:04:19;;;;;;;;;;;;;;;5.29;100.00;99851.78;4825695;29;19976;-64
2021/11/10 23:07:20;;;;;;;;;;;;;;;4.95;100.00;99852.53;4851655;29;19924;-64
2021/11/10 23:10:31;;;;;;;;;;;;;;;4.39;100.00;99858.16;4840487;29;19924;-64
2021/11/10 23:16:38;;;;;;;;;;;;;;;4.52;100.00;99865.03;4811731;29;19932;-64
2021/11/10 23:22:57;;;;;;;;;;;;;;;4.57;100.00;99880.38;4815445;29;19936;-64
2021/11/10 23:26:02;;;;;;;;;;;;;;;4.50;100.00;99871.84;4821308;29;19928;-64
2021/11/10 23:29:06;;;;;;;;;;;;;;;4.67;100.00;99864.28;4819636;29;19925;-64
2021/11/10 23:35:31;;;;;;;;;;;;;;;4.74;100.00;99877.91;4774295;29;19980;-64
2021/11/10 23:38:41;;;;;;;;;;;;;;;4.63;100.00;99875.31;4816993;29;19925;-64
2021/11/10 23:44:39;;;;;;;;;;;;;;;4.64;100.00;99865.97;4832061;29;20367;-64
2021/11/10 23:47:54;;;;;;;;;;;;;;;4.55;100.00;99862.50;4846576;29;19928;-64
2021/11/10 23:53:32;;;;;;;;;;;;;;;4.72;100.00;99859.19;4912943;29;20736;-64
2021/11/10 23:56:43;;;;;;;;;;;;;;;4.76;100.00;99859.22;4875002;29;20380;-64
2021/11/10 23:59:38;;;;;;;;;;;;;;;4.55;100.00;99856.56;4925786;29;19957;-64
